sensor_id;sensor_type;location;lat;lon;timestamp;P1;durP1;ratioP1;P2;durP2;ratioP2
59302;SDS011;45074;52.764;6.896;2023-07-09T00:02:18;11.13;;;8.07;;
59302;SDS011;45074;52.764;6.896;2023-07-09T00:04:43;11.98;;;8.35;;
59302;SDS011;45074;52.764;6.896;2023-07-09T00:09:55;11.55;;;8.18;;
59302;SDS011;45074;52.764;6.896;2023-07-09T00:12:21;12.50;;;8.20;;
59302;SDS011;45074;52.764;6.896;2023-07-09T00:14:47;10.88;;;7.82;;
59302;SDS011;45074;52.764;6.896;2023-07-09T00:19:48;11.20;;;7.60;;
59302;SDS011;45074;52.764;6.896;2023-07-09T00:22:15;12.35;;;7.88;;
59302;SDS011;45074;52.764;6.896;2023-07-09T00:24:43;11.00;;;7.90;;
59302;SDS011;45074;52.764;6.896;2023-07-09T00:29:40;11.90;;;7.80;;
59302;SDS011;45074;52.764;6.896;2023-07-09T00:32:16;11.13;;;7.47;;
59302;SDS011;45074;52.764;6.896;2023-07-09T00:34:45;12.25;;;7.93;;
59302;SDS011;45074;52.764;6.896;2023-07-09T00:37:18;13.27;;;8.00;;
59302;SDS011;45074;52.764;6.896;2023-07-09T00:39:46;10.98;;;7.82;;
59302;SDS011;45074;52.764;6.896;2023-07-09T00:42:18;11.73;;;8.85;;
59302;SDS011;45074;52.764;6.896;2023-07-09T00:44:45;12.45;;;8.63;;
59302;SDS011;45074;52.764;6.896;2023-07-09T00:49:49;11.63;;;8.38;;
59302;SDS011;45074;52.764;6.896;2023-07-09T00:52:28;10.95;;;8.80;;
59302;SDS011;45074;52.764;6.896;2023-07-09T00:55:02;9.90;;;7.93;;
59302;SDS011;45074;52.764;6.896;2023-07-09T00:57:35;10.30;;;7.82;;
59302;SDS011;45074;52.764;6.896;2023-07-09T01:00:06;13.13;;;8.27;;
59302;SDS011;45074;52.764;6.896;2023-07-09T01:02:38;10.25;;;7.85;;
59302;SDS011;45074;52.764;6.896;2023-07-09T01:05:09;11.07;;;8.13;;
59302;SDS011;45074;52.764;6.896;2023-07-09T01:07:37;11.00;;;8.02;;
59302;SDS011;45074;52.764;6.896;2023-07-09T01:10:03;13.48;;;8.20;;
59302;SDS011;45074;52.764;6.896;2023-07-09T01:12:29;10.93;;;8.10;;
59302;SDS011;45074;52.764;6.896;2023-07-09T01:14:55;12.70;;;8.13;;
59302;SDS011;45074;52.764;6.896;2023-07-09T01:17:24;9.90;;;8.07;;
59302;SDS011;45074;52.764;6.896;2023-07-09T01:19:54;11.20;;;8.10;;
59302;SDS011;45074;52.764;6.896;2023-07-09T01:22:21;10.30;;;7.90;;
59302;SDS011;45074;52.764;6.896;2023-07-09T01:27:20;9.95;;;7.82;;
59302;SDS011;45074;52.764;6.896;2023-07-09T01:29:48;11.10;;;8.77;;
59302;SDS011;45074;52.764;6.896;2023-07-09T01:32:17;9.27;;;7.55;;
59302;SDS011;45074;52.764;6.896;2023-07-09T01:34:48;12.82;;;8.48;;
59302;SDS011;45074;52.764;6.896;2023-07-09T01:37:16;10.63;;;7.70;;
59302;SDS011;45074;52.764;6.896;2023-07-09T01:39:43;11.77;;;8.30;;
59302;SDS011;45074;52.764;6.896;2023-07-09T01:42:09;10.77;;;7.85;;
59302;SDS011;45074;52.764;6.896;2023-07-09T01:44:36;10.68;;;7.68;;
59302;SDS011;45074;52.764;6.896;2023-07-09T01:47:03;10.80;;;7.65;;
59302;SDS011;45074;52.764;6.896;2023-07-09T01:49:29;10.98;;;8.00;;
59302;SDS011;45074;52.764;6.896;2023-07-09T01:51:58;10.77;;;8.38;;
59302;SDS011;45074;52.764;6.896;2023-07-09T01:54:27;10.52;;;8.23;;
59302;SDS011;45074;52.764;6.896;2023-07-09T01:56:54;11.32;;;8.43;;
59302;SDS011;45074;52.764;6.896;2023-07-09T01:59:26;10.27;;;7.88;;
59302;SDS011;45074;52.764;6.896;2023-07-09T02:01:52;11.07;;;7.97;;
59302;SDS011;45074;52.764;6.896;2023-07-09T02:04:22;11.38;;;8.65;;
59302;SDS011;45074;52.764;6.896;2023-07-09T02:06:53;11.20;;;8.10;;
59302;SDS011;45074;52.764;6.896;2023-07-09T02:09:18;11.75;;;8.10;;
59302;SDS011;45074;52.764;6.896;2023-07-09T02:11:44;11.70;;;8.15;;
59302;SDS011;45074;52.764;6.896;2023-07-09T02:14:10;10.27;;;8.05;;
59302;SDS011;45074;52.764;6.896;2023-07-09T02:16:36;9.85;;;7.75;;
59302;SDS011;45074;52.764;6.896;2023-07-09T02:19:02;10.70;;;8.27;;
59302;SDS011;45074;52.764;6.896;2023-07-09T02:21:28;10.80;;;8.02;;
59302;SDS011;45074;52.764;6.896;2023-07-09T02:23:55;11.68;;;8.35;;
59302;SDS011;45074;52.764;6.896;2023-07-09T02:26:21;12.27;;;8.38;;
59302;SDS011;45074;52.764;6.896;2023-07-09T02:28:47;11.98;;;8.20;;
59302;SDS011;45074;52.764;6.896;2023-07-09T02:31:12;11.52;;;8.45;;
59302;SDS011;45074;52.764;6.896;2023-07-09T02:33:40;10.68;;;8.40;;
59302;SDS011;45074;52.764;6.896;2023-07-09T02:36:06;11.27;;;7.95;;
59302;SDS011;45074;52.764;6.896;2023-07-09T02:38:33;12.98;;;8.45;;
59302;SDS011;45074;52.764;6.896;2023-07-09T02:40:59;10.90;;;8.32;;
59302;SDS011;45074;52.764;6.896;2023-07-09T02:43:25;11.88;;;8.52;;
59302;SDS011;45074;52.764;6.896;2023-07-09T02:45:51;11.45;;;8.73;;
59302;SDS011;45074;52.764;6.896;2023-07-09T02:48:17;11.05;;;8.68;;
59302;SDS011;45074;52.764;6.896;2023-07-09T02:50:43;12.50;;;8.57;;
59302;SDS011;45074;52.764;6.896;2023-07-09T02:53:09;11.63;;;8.77;;
59302;SDS011;45074;52.764;6.896;2023-07-09T02:55:35;10.85;;;8.80;;
59302;SDS011;45074;52.764;6.896;2023-07-09T02:58:01;11.02;;;8.60;;
59302;SDS011;45074;52.764;6.896;2023-07-09T03:00:27;10.25;;;8.63;;
59302;SDS011;45074;52.764;6.896;2023-07-09T03:02:53;12.73;;;9.50;;
59302;SDS011;45074;52.764;6.896;2023-07-09T03:05:19;11.60;;;8.90;;
59302;SDS011;45074;52.764;6.896;2023-07-09T03:07:45;10.48;;;8.90;;
59302;SDS011;45074;52.764;6.896;2023-07-09T03:10:11;13.25;;;9.00;;
59302;SDS011;45074;52.764;6.896;2023-07-09T03:12:37;12.02;;;9.18;;
59302;SDS011;45074;52.764;6.896;2023-07-09T03:15:03;12.13;;;9.30;;
59302;SDS011;45074;52.764;6.896;2023-07-09T03:17:29;13.10;;;9.52;;
59302;SDS011;45074;52.764;6.896;2023-07-09T03:19:55;12.38;;;9.13;;
59302;SDS011;45074;52.764;6.896;2023-07-09T03:22:21;12.30;;;8.95;;
59302;SDS011;45074;52.764;6.896;2023-07-09T03:24:47;11.15;;;8.80;;
59302;SDS011;45074;52.764;6.896;2023-07-09T03:27:14;12.02;;;8.65;;
59302;SDS011;45074;52.764;6.896;2023-07-09T03:29:40;11.25;;;8.55;;
59302;SDS011;45074;52.764;6.896;2023-07-09T03:32:06;11.95;;;8.82;;
59302;SDS011;45074;52.764;6.896;2023-07-09T03:34:32;12.95;;;9.00;;
59302;SDS011;45074;52.764;6.896;2023-07-09T03:36:58;12.13;;;8.73;;
59302;SDS011;45074;52.764;6.896;2023-07-09T03:39:24;12.13;;;8.65;;
59302;SDS011;45074;52.764;6.896;2023-07-09T03:41:50;12.32;;;9.05;;
59302;SDS011;45074;52.764;6.896;2023-07-09T03:44:16;11.45;;;9.20;;
59302;SDS011;45074;52.764;6.896;2023-07-09T03:46:42;11.13;;;8.80;;
59302;SDS011;45074;52.764;6.896;2023-07-09T03:49:08;12.75;;;8.80;;
59302;SDS011;45074;52.764;6.896;2023-07-09T03:51:34;12.60;;;8.45;;
59302;SDS011;45074;52.764;6.896;2023-07-09T03:54:00;11.50;;;8.73;;
59302;SDS011;45074;52.764;6.896;2023-07-09T03:56:26;13.68;;;8.88;;
59302;SDS011;45074;52.764;6.896;2023-07-09T03:58:52;12.88;;;9.23;;
59302;SDS011;45074;52.764;6.896;2023-07-09T04:01:17;11.95;;;8.75;;
59302;SDS011;45074;52.764;6.896;2023-07-09T04:03:43;13.27;;;9.38;;
59302;SDS011;45074;52.764;6.896;2023-07-09T04:06:09;11.05;;;8.93;;
59302;SDS011;45074;52.764;6.896;2023-07-09T04:08:35;10.98;;;8.20;;
59302;SDS011;45074;52.764;6.896;2023-07-09T04:11:02;12.70;;;9.05;;
59302;SDS011;45074;52.764;6.896;2023-07-09T04:13:28;12.60;;;9.38;;
59302;SDS011;45074;52.764;6.896;2023-07-09T04:15:55;11.40;;;8.38;;
59302;SDS011;45074;52.764;6.896;2023-07-09T04:18:21;13.50;;;9.05;;
59302;SDS011;45074;52.764;6.896;2023-07-09T04:20:50;11.60;;;8.77;;
59302;SDS011;45074;52.764;6.896;2023-07-09T04:23:16;12.00;;;8.90;;
59302;SDS011;45074;52.764;6.896;2023-07-09T04:25:42;10.75;;;8.75;;
59302;SDS011;45074;52.764;6.896;2023-07-09T04:28:08;10.82;;;8.38;;
59302;SDS011;45074;52.764;6.896;2023-07-09T04:30:35;11.75;;;8.85;;
59302;SDS011;45074;52.764;6.896;2023-07-09T04:33:00;11.50;;;9.02;;
59302;SDS011;45074;52.764;6.896;2023-07-09T04:35:27;12.32;;;8.73;;
59302;SDS011;45074;52.764;6.896;2023-07-09T04:37:52;11.55;;;8.90;;
59302;SDS011;45074;52.764;6.896;2023-07-09T04:40:19;13.35;;;8.48;;
59302;SDS011;45074;52.764;6.896;2023-07-09T04:42:45;13.05;;;8.75;;
59302;SDS011;45074;52.764;6.896;2023-07-09T04:45:11;11.73;;;8.70;;
59302;SDS011;45074;52.764;6.896;2023-07-09T04:47:38;12.98;;;9.00;;
59302;SDS011;45074;52.764;6.896;2023-07-09T04:50:04;10.95;;;8.07;;
59302;SDS011;45074;52.764;6.896;2023-07-09T04:52:32;11.55;;;9.20;;
59302;SDS011;45074;52.764;6.896;2023-07-09T04:54:58;11.05;;;8.40;;
59302;SDS011;45074;52.764;6.896;2023-07-09T04:57:26;14.20;;;8.98;;
59302;SDS011;45074;52.764;6.896;2023-07-09T04:59:52;11.23;;;8.50;;
59302;SDS011;45074;52.764;6.896;2023-07-09T05:02:18;12.35;;;8.77;;
59302;SDS011;45074;52.764;6.896;2023-07-09T05:04:44;12.65;;;8.48;;
59302;SDS011;45074;52.764;6.896;2023-07-09T05:07:10;13.65;;;9.68;;
59302;SDS011;45074;52.764;6.896;2023-07-09T05:09:36;11.15;;;8.88;;
59302;SDS011;45074;52.764;6.896;2023-07-09T05:12:02;10.65;;;8.38;;
59302;SDS011;45074;52.764;6.896;2023-07-09T05:14:28;11.45;;;8.52;;
59302;SDS011;45074;52.764;6.896;2023-07-09T05:16:54;12.40;;;8.43;;
59302;SDS011;45074;52.764;6.896;2023-07-09T05:19:20;11.68;;;8.65;;
59302;SDS011;45074;52.764;6.896;2023-07-09T05:21:46;12.23;;;8.35;;
59302;SDS011;45074;52.764;6.896;2023-07-09T05:24:12;13.25;;;8.68;;
59302;SDS011;45074;52.764;6.896;2023-07-09T05:26:38;11.50;;;8.57;;
59302;SDS011;45074;52.764;6.896;2023-07-09T05:29:05;13.63;;;10.10;;
59302;SDS011;45074;52.764;6.896;2023-07-09T05:31:31;12.02;;;8.65;;
59302;SDS011;45074;52.764;6.896;2023-07-09T05:33:58;11.07;;;8.20;;
59302;SDS011;45074;52.764;6.896;2023-07-09T05:36:25;12.68;;;8.85;;
59302;SDS011;45074;52.764;6.896;2023-07-09T05:38:52;11.82;;;8.55;;
59302;SDS011;45074;52.764;6.896;2023-07-09T05:41:18;12.85;;;8.73;;
59302;SDS011;45074;52.764;6.896;2023-07-09T05:43:44;11.07;;;8.45;;
59302;SDS011;45074;52.764;6.896;2023-07-09T05:46:14;12.65;;;8.18;;
59302;SDS011;45074;52.764;6.896;2023-07-09T05:48:39;13.38;;;8.60;;
59302;SDS011;45074;52.764;6.896;2023-07-09T05:51:05;11.02;;;7.60;;
59302;SDS011;45074;52.764;6.896;2023-07-09T05:53:31;11.35;;;8.40;;
59302;SDS011;45074;52.764;6.896;2023-07-09T05:55:58;12.02;;;8.20;;
59302;SDS011;45074;52.764;6.896;2023-07-09T05:58:24;11.10;;;8.35;;
59302;SDS011;45074;52.764;6.896;2023-07-09T06:00:50;11.30;;;7.88;;
59302;SDS011;45074;52.764;6.896;2023-07-09T06:03:21;11.63;;;8.27;;
59302;SDS011;45074;52.764;6.896;2023-07-09T06:05:48;11.68;;;8.18;;
59302;SDS011;45074;52.764;6.896;2023-07-09T06:08:15;12.82;;;8.25;;
59302;SDS011;45074;52.764;6.896;2023-07-09T06:10:50;10.85;;;7.95;;
59302;SDS011;45074;52.764;6.896;2023-07-09T06:13:16;12.48;;;8.40;;
59302;SDS011;45074;52.764;6.896;2023-07-09T06:15:43;15.68;;;7.82;;
59302;SDS011;45074;52.764;6.896;2023-07-09T06:18:09;10.73;;;8.00;;
59302;SDS011;45074;52.764;6.896;2023-07-09T06:20:34;10.70;;;7.90;;
59302;SDS011;45074;52.764;6.896;2023-07-09T06:23:00;10.27;;;8.10;;
59302;SDS011;45074;52.764;6.896;2023-07-09T06:25:25;11.55;;;8.25;;
59302;SDS011;45074;52.764;6.896;2023-07-09T06:27:51;11.90;;;8.32;;
59302;SDS011;45074;52.764;6.896;2023-07-09T06:30:17;11.32;;;8.32;;
59302;SDS011;45074;52.764;6.896;2023-07-09T06:32:44;10.40;;;8.50;;
59302;SDS011;45074;52.764;6.896;2023-07-09T06:35:10;11.90;;;8.15;;
59302;SDS011;45074;52.764;6.896;2023-07-09T06:37:36;10.75;;;7.72;;
59302;SDS011;45074;52.764;6.896;2023-07-09T06:40:02;11.02;;;8.15;;
59302;SDS011;45074;52.764;6.896;2023-07-09T06:42:28;12.30;;;8.73;;
59302;SDS011;45074;52.764;6.896;2023-07-09T06:44:53;10.43;;;7.80;;
59302;SDS011;45074;52.764;6.896;2023-07-09T06:47:19;11.70;;;7.47;;
59302;SDS011;45074;52.764;6.896;2023-07-09T06:49:44;12.38;;;7.97;;
59302;SDS011;45074;52.764;6.896;2023-07-09T06:52:11;12.65;;;8.70;;
59302;SDS011;45074;52.764;6.896;2023-07-09T06:54:36;11.80;;;7.70;;
59302;SDS011;45074;52.764;6.896;2023-07-09T06:57:02;11.95;;;8.50;;
59302;SDS011;45074;52.764;6.896;2023-07-09T06:59:28;9.98;;;7.32;;
59302;SDS011;45074;52.764;6.896;2023-07-09T07:01:53;9.82;;;7.68;;
59302;SDS011;45074;52.764;6.896;2023-07-09T07:04:19;12.93;;;8.07;;
59302;SDS011;45074;52.764;6.896;2023-07-09T07:06:45;13.30;;;8.02;;
59302;SDS011;45074;52.764;6.896;2023-07-09T07:09:11;10.55;;;7.43;;
59302;SDS011;45074;52.764;6.896;2023-07-09T07:11:37;10.77;;;8.02;;
59302;SDS011;45074;52.764;6.896;2023-07-09T07:14:03;12.10;;;8.60;;
59302;SDS011;45074;52.764;6.896;2023-07-09T07:16:29;10.05;;;7.75;;
59302;SDS011;45074;52.764;6.896;2023-07-09T07:18:55;11.20;;;7.35;;
59302;SDS011;45074;52.764;6.896;2023-07-09T07:21:21;11.55;;;8.23;;
59302;SDS011;45074;52.764;6.896;2023-07-09T07:23:47;12.77;;;8.18;;
59302;SDS011;45074;52.764;6.896;2023-07-09T07:26:13;10.70;;;8.02;;
59302;SDS011;45074;52.764;6.896;2023-07-09T07:28:39;10.57;;;7.43;;
59302;SDS011;45074;52.764;6.896;2023-07-09T07:31:06;10.35;;;8.13;;
59302;SDS011;45074;52.764;6.896;2023-07-09T07:33:33;12.15;;;7.82;;
59302;SDS011;45074;52.764;6.896;2023-07-09T07:35:59;12.70;;;7.97;;
59302;SDS011;45074;52.764;6.896;2023-07-09T07:38:25;9.27;;;6.93;;
59302;SDS011;45074;52.764;6.896;2023-07-09T07:40:51;10.88;;;7.80;;
59302;SDS011;45074;52.764;6.896;2023-07-09T07:43:17;10.95;;;7.63;;
59302;SDS011;45074;52.764;6.896;2023-07-09T07:45:43;9.90;;;7.10;;
59302;SDS011;45074;52.764;6.896;2023-07-09T07:48:10;10.60;;;7.50;;
59302;SDS011;45074;52.764;6.896;2023-07-09T07:50:36;11.65;;;7.25;;
59302;SDS011;45074;52.764;6.896;2023-07-09T07:53:03;12.30;;;7.45;;
59302;SDS011;45074;52.764;6.896;2023-07-09T07:55:29;9.95;;;7.15;;
59302;SDS011;45074;52.764;6.896;2023-07-09T07:57:56;11.85;;;7.85;;
59302;SDS011;45074;52.764;6.896;2023-07-09T08:00:22;11.82;;;7.43;;
59302;SDS011;45074;52.764;6.896;2023-07-09T08:02:48;12.18;;;7.63;;
59302;SDS011;45074;52.764;6.896;2023-07-09T08:05:14;10.27;;;7.30;;
59302;SDS011;45074;52.764;6.896;2023-07-09T08:07:41;10.85;;;7.13;;
59302;SDS011;45074;52.764;6.896;2023-07-09T08:10:07;10.65;;;7.47;;
59302;SDS011;45074;52.764;6.896;2023-07-09T08:12:33;11.35;;;7.05;;
59302;SDS011;45074;52.764;6.896;2023-07-09T08:14:59;12.00;;;7.35;;
59302;SDS011;45074;52.764;6.896;2023-07-09T08:17:25;10.85;;;7.15;;
59302;SDS011;45074;52.764;6.896;2023-07-09T08:19:52;11.18;;;7.13;;
59302;SDS011;45074;52.764;6.896;2023-07-09T08:22:18;12.30;;;7.13;;
59302;SDS011;45074;52.764;6.896;2023-07-09T08:24:47;15.88;;;7.20;;
59302;SDS011;45074;52.764;6.896;2023-07-09T08:27:13;10.35;;;6.88;;
59302;SDS011;45074;52.764;6.896;2023-07-09T08:29:39;11.07;;;6.93;;
59302;SDS011;45074;52.764;6.896;2023-07-09T08:32:07;10.77;;;6.55;;
59302;SDS011;45074;52.764;6.896;2023-07-09T08:34:33;10.88;;;7.13;;
59302;SDS011;45074;52.764;6.896;2023-07-09T08:37:00;9.27;;;6.90;;
59302;SDS011;45074;52.764;6.896;2023-07-09T08:39:26;10.38;;;6.90;;
59302;SDS011;45074;52.764;6.896;2023-07-09T08:41:54;9.80;;;6.65;;
59302;SDS011;45074;52.764;6.896;2023-07-09T08:44:27;10.15;;;6.72;;
59302;SDS011;45074;52.764;6.896;2023-07-09T08:47:06;11.13;;;6.70;;
59302;SDS011;45074;52.764;6.896;2023-07-09T08:51:59;10.27;;;6.90;;
59302;SDS011;45074;52.764;6.896;2023-07-09T08:54:28;9.63;;;6.70;;
59302;SDS011;45074;52.764;6.896;2023-07-09T08:56:55;10.68;;;6.80;;
59302;SDS011;45074;52.764;6.896;2023-07-09T08:59:22;13.73;;;7.35;;
59302;SDS011;45074;52.764;6.896;2023-07-09T09:01:52;11.00;;;6.70;;
59302;SDS011;45074;52.764;6.896;2023-07-09T09:04:30;10.68;;;6.70;;
59302;SDS011;45074;52.764;6.896;2023-07-09T09:06:59;11.73;;;7.07;;
59302;SDS011;45074;52.764;6.896;2023-07-09T09:09:43;9.57;;;6.47;;
59302;SDS011;45074;52.764;6.896;2023-07-09T09:12:18;9.60;;;6.40;;
59302;SDS011;45074;52.764;6.896;2023-07-09T09:15:18;9.57;;;6.95;;
59302;SDS011;45074;52.764;6.896;2023-07-09T09:17:38;9.93;;;7.07;;
59302;SDS011;45074;52.764;6.896;2023-07-09T09:20:06;10.60;;;7.10;;
59302;SDS011;45074;52.764;6.896;2023-07-09T09:22:44;9.20;;;6.38;;
59302;SDS011;45074;52.764;6.896;2023-07-09T09:27:42;10.93;;;6.78;;
59302;SDS011;45074;52.764;6.896;2023-07-09T09:30:11;9.38;;;6.18;;
59302;SDS011;45074;52.764;6.896;2023-07-09T09:32:43;9.80;;;6.13;;
59302;SDS011;45074;52.764;6.896;2023-07-09T09:35:13;9.70;;;5.85;;
59302;SDS011;45074;52.764;6.896;2023-07-09T09:37:39;9.65;;;5.93;;
59302;SDS011;45074;52.764;6.896;2023-07-09T09:40:08;13.05;;;6.63;;
59302;SDS011;45074;52.764;6.896;2023-07-09T09:42:34;11.40;;;5.97;;
59302;SDS011;45074;52.764;6.896;2023-07-09T09:45:01;8.60;;;5.75;;
59302;SDS011;45074;52.764;6.896;2023-07-09T09:47:28;10.40;;;5.72;;
59302;SDS011;45074;52.764;6.896;2023-07-09T09:49:54;8.82;;;5.43;;
59302;SDS011;45074;52.764;6.896;2023-07-09T09:52:23;8.88;;;5.53;;
59302;SDS011;45074;52.764;6.896;2023-07-09T09:54:54;10.20;;;6.07;;
59302;SDS011;45074;52.764;6.896;2023-07-09T09:57:24;8.77;;;5.72;;
59302;SDS011;45074;52.764;6.896;2023-07-09T09:59:50;9.20;;;4.97;;
59302;SDS011;45074;52.764;6.896;2023-07-09T10:02:23;9.65;;;5.43;;
59302;SDS011;45074;52.764;6.896;2023-07-09T10:04:51;9.57;;;5.60;;
59302;SDS011;45074;52.764;6.896;2023-07-09T10:09:55;8.48;;;5.45;;
59302;SDS011;45074;52.764;6.896;2023-07-09T10:12:40;9.35;;;5.30;;
59302;SDS011;45074;52.764;6.896;2023-07-09T10:22:57;8.55;;;5.10;;
59302;SDS011;45074;52.764;6.896;2023-07-09T10:33:16;7.82;;;5.10;;
59302;SDS011;45074;52.764;6.896;2023-07-09T10:38:18;8.85;;;5.47;;
59302;SDS011;45074;52.764;6.896;2023-07-09T10:40:47;9.48;;;5.80;;
59302;SDS011;45074;52.764;6.896;2023-07-09T10:43:16;9.95;;;5.10;;
59302;SDS011;45074;52.764;6.896;2023-07-09T10:45:46;9.40;;;5.73;;
59302;SDS011;45074;52.764;6.896;2023-07-09T10:48:16;9.30;;;5.25;;
59302;SDS011;45074;52.764;6.896;2023-07-09T10:50:48;9.52;;;5.70;;
59302;SDS011;45074;52.764;6.896;2023-07-09T10:53:29;7.97;;;5.15;;
59302;SDS011;45074;52.764;6.896;2023-07-09T10:56:02;7.18;;;4.95;;
59302;SDS011;45074;52.764;6.896;2023-07-09T10:58:37;7.90;;;4.85;;
59302;SDS011;45074;52.764;6.896;2023-07-09T11:01:05;10.85;;;5.15;;
59302;SDS011;45074;52.764;6.896;2023-07-09T11:03:39;10.30;;;5.20;;
59302;SDS011;45074;52.764;6.896;2023-07-09T11:06:13;9.95;;;5.28;;
59302;SDS011;45074;52.764;6.896;2023-07-09T11:08:40;8.45;;;5.40;;
59302;SDS011;45074;52.764;6.896;2023-07-09T11:11:12;8.77;;;5.38;;
59302;SDS011;45074;52.764;6.896;2023-07-09T11:13:41;9.38;;;5.25;;
59302;SDS011;45074;52.764;6.896;2023-07-09T11:16:11;9.65;;;5.45;;
59302;SDS011;45074;52.764;6.896;2023-07-09T11:18:38;9.52;;;5.38;;
59302;SDS011;45074;52.764;6.896;2023-07-09T11:21:05;9.27;;;5.75;;
59302;SDS011;45074;52.764;6.896;2023-07-09T11:23:39;9.43;;;5.40;;
59302;SDS011;45074;52.764;6.896;2023-07-09T11:28:39;8.73;;;5.10;;
59302;SDS011;45074;52.764;6.896;2023-07-09T11:31:15;7.50;;;4.40;;
59302;SDS011;45074;52.764;6.896;2023-07-09T11:33:46;9.55;;;4.97;;
59302;SDS011;45074;52.764;6.896;2023-07-09T11:36:13;8.52;;;4.63;;
59302;SDS011;45074;52.764;6.896;2023-07-09T11:38:47;7.85;;;4.75;;
59302;SDS011;45074;52.764;6.896;2023-07-09T11:41:26;9.77;;;5.13;;
59302;SDS011;45074;52.764;6.896;2023-07-09T11:44:00;8.52;;;4.55;;
59302;SDS011;45074;52.764;6.896;2023-07-09T11:46:28;9.18;;;4.60;;
59302;SDS011;45074;52.764;6.896;2023-07-09T11:48:54;8.63;;;4.38;;
59302;SDS011;45074;52.764;6.896;2023-07-09T11:51:26;8.85;;;4.57;;
59302;SDS011;45074;52.764;6.896;2023-07-09T11:53:55;7.95;;;4.47;;
59302;SDS011;45074;52.764;6.896;2023-07-09T11:56:22;6.78;;;4.72;;
59302;SDS011;45074;52.764;6.896;2023-07-09T11:58:53;7.13;;;4.50;;
59302;SDS011;45074;52.764;6.896;2023-07-09T12:01:28;7.78;;;4.72;;
59302;SDS011;45074;52.764;6.896;2023-07-09T12:03:57;7.18;;;4.47;;
59302;SDS011;45074;52.764;6.896;2023-07-09T12:06:28;8.95;;;5.00;;
59302;SDS011;45074;52.764;6.896;2023-07-09T12:08:54;7.75;;;4.75;;
59302;SDS011;45074;52.764;6.896;2023-07-09T12:11:28;8.80;;;4.68;;
59302;SDS011;45074;52.764;6.896;2023-07-09T12:13:54;7.15;;;4.32;;
59302;SDS011;45074;52.764;6.896;2023-07-09T12:16:34;7.72;;;4.03;;
59302;SDS011;45074;52.764;6.896;2023-07-09T12:19:00;8.15;;;4.40;;
59302;SDS011;45074;52.764;6.896;2023-07-09T12:21:26;8.15;;;4.22;;
59302;SDS011;45074;52.764;6.896;2023-07-09T12:23:54;9.63;;;4.10;;
59302;SDS011;45074;52.764;6.896;2023-07-09T12:26:23;8.55;;;4.35;;
59302;SDS011;45074;52.764;6.896;2023-07-09T12:28:50;7.03;;;4.25;;
59302;SDS011;45074;52.764;6.896;2023-07-09T12:31:17;7.88;;;4.25;;
59302;SDS011;45074;52.764;6.896;2023-07-09T12:33:49;9.30;;;4.20;;
59302;SDS011;45074;52.764;6.896;2023-07-09T12:36:16;7.28;;;4.30;;
59302;SDS011;45074;52.764;6.896;2023-07-09T12:38:44;8.68;;;3.92;;
59302;SDS011;45074;52.764;6.896;2023-07-09T12:41:15;9.90;;;4.47;;
59302;SDS011;45074;52.764;6.896;2023-07-09T12:43:43;8.52;;;4.10;;
59302;SDS011;45074;52.764;6.896;2023-07-09T12:46:09;6.75;;;4.03;;
59302;SDS011;45074;52.764;6.896;2023-07-09T12:48:35;7.18;;;4.20;;
59302;SDS011;45074;52.764;6.896;2023-07-09T12:51:02;6.40;;;3.85;;
59302;SDS011;45074;52.764;6.896;2023-07-09T12:53:32;8.07;;;3.80;;
59302;SDS011;45074;52.764;6.896;2023-07-09T12:55:58;10.05;;;3.85;;
59302;SDS011;45074;52.764;6.896;2023-07-09T12:58:29;6.22;;;3.10;;
59302;SDS011;45074;52.764;6.896;2023-07-09T13:00:55;6.40;;;3.75;;
59302;SDS011;45074;52.764;6.896;2023-07-09T13:03:29;6.63;;;3.45;;
59302;SDS011;45074;52.764;6.896;2023-07-09T13:05:59;6.68;;;3.42;;
59302;SDS011;45074;52.764;6.896;2023-07-09T13:08:27;8.48;;;3.67;;
59302;SDS011;45074;52.764;6.896;2023-07-09T13:10:53;6.07;;;3.28;;
59302;SDS011;45074;52.764;6.896;2023-07-09T13:13:20;7.07;;;3.08;;
59302;SDS011;45074;52.764;6.896;2023-07-09T13:15:56;6.00;;;3.40;;
59302;SDS011;45074;52.764;6.896;2023-07-09T13:18:25;7.38;;;3.20;;
59302;SDS011;45074;52.764;6.896;2023-07-09T13:20:52;6.60;;;3.42;;
59302;SDS011;45074;52.764;6.896;2023-07-09T13:23:20;7.00;;;3.50;;
59302;SDS011;45074;52.764;6.896;2023-07-09T13:25:47;6.80;;;3.60;;
59302;SDS011;45074;52.764;6.896;2023-07-09T13:30:42;8.20;;;3.45;;
59302;SDS011;45074;52.764;6.896;2023-07-09T13:33:09;6.55;;;3.72;;
59302;SDS011;45074;52.764;6.896;2023-07-09T13:35:36;8.15;;;3.67;;
59302;SDS011;45074;52.764;6.896;2023-07-09T13:38:02;6.35;;;3.20;;
59302;SDS011;45074;52.764;6.896;2023-07-09T13:40:30;8.68;;;4.50;;
59302;SDS011;45074;52.764;6.896;2023-07-09T13:42:57;7.97;;;4.13;;
59302;SDS011;45074;52.764;6.896;2023-07-09T13:45:23;7.10;;;3.90;;
59302;SDS011;45074;52.764;6.896;2023-07-09T13:47:51;7.15;;;3.80;;
59302;SDS011;45074;52.764;6.896;2023-07-09T13:50:17;7.35;;;3.40;;
59302;SDS011;45074;52.764;6.896;2023-07-09T13:52:44;7.25;;;3.92;;
59302;SDS011;45074;52.764;6.896;2023-07-09T13:55:21;7.32;;;3.53;;
59302;SDS011;45074;52.764;6.896;2023-07-09T13:57:48;8.05;;;3.78;;
59302;SDS011;45074;52.764;6.896;2023-07-09T14:00:15;8.95;;;4.20;;
59302;SDS011;45074;52.764;6.896;2023-07-09T14:02:41;7.07;;;3.95;;
59302;SDS011;45074;52.764;6.896;2023-07-09T14:05:09;7.97;;;4.43;;
59302;SDS011;45074;52.764;6.896;2023-07-09T14:07:36;8.50;;;5.00;;
59302;SDS011;45074;52.764;6.896;2023-07-09T14:10:04;11.40;;;4.45;;
59302;SDS011;45074;52.764;6.896;2023-07-09T14:12:30;7.30;;;4.00;;
59302;SDS011;45074;52.764;6.896;2023-07-09T14:14:57;7.15;;;4.00;;
59302;SDS011;45074;52.764;6.896;2023-07-09T14:17:24;6.90;;;4.00;;
59302;SDS011;45074;52.764;6.896;2023-07-09T14:19:51;7.60;;;3.67;;
59302;SDS011;45074;52.764;6.896;2023-07-09T14:22:25;8.40;;;3.88;;
59302;SDS011;45074;52.764;6.896;2023-07-09T14:24:53;7.28;;;4.30;;
59302;SDS011;45074;52.764;6.896;2023-07-09T14:27:19;9.90;;;5.30;;
59302;SDS011;45074;52.764;6.896;2023-07-09T14:29:45;8.52;;;4.68;;
59302;SDS011;45074;52.764;6.896;2023-07-09T14:32:31;11.43;;;4.45;;
59302;SDS011;45074;52.764;6.896;2023-07-09T14:34:58;7.05;;;4.22;;
59302;SDS011;45074;52.764;6.896;2023-07-09T14:37:24;7.38;;;4.25;;
59302;SDS011;45074;52.764;6.896;2023-07-09T14:39:51;8.73;;;4.20;;
59302;SDS011;45074;52.764;6.896;2023-07-09T14:42:17;7.93;;;4.57;;
59302;SDS011;45074;52.764;6.896;2023-07-09T14:44:44;7.72;;;4.47;;
59302;SDS011;45074;52.764;6.896;2023-07-09T14:47:18;9.00;;;4.20;;
59302;SDS011;45074;52.764;6.896;2023-07-09T14:49:45;11.07;;;4.65;;
59302;SDS011;45074;52.764;6.896;2023-07-09T14:52:12;9.07;;;4.85;;
59302;SDS011;45074;52.764;6.896;2023-07-09T14:54:38;9.60;;;4.95;;
59302;SDS011;45074;52.764;6.896;2023-07-09T14:57:08;8.25;;;4.75;;
59302;SDS011;45074;52.764;6.896;2023-07-09T14:59:39;9.02;;;4.60;;
59302;SDS011;45074;52.764;6.896;2023-07-09T15:02:10;8.60;;;4.57;;
59302;SDS011;45074;52.764;6.896;2023-07-09T15:04:44;7.90;;;4.65;;
59302;SDS011;45074;52.764;6.896;2023-07-09T15:07:11;7.53;;;4.80;;
59302;SDS011;45074;52.764;6.896;2023-07-09T15:09:38;8.13;;;5.10;;
59302;SDS011;45074;52.764;6.896;2023-07-09T15:12:08;8.07;;;5.05;;
59302;SDS011;45074;52.764;6.896;2023-07-09T15:14:37;7.18;;;4.60;;
59302;SDS011;45074;52.764;6.896;2023-07-09T15:17:04;8.40;;;4.95;;
59302;SDS011;45074;52.764;6.896;2023-07-09T15:19:30;10.15;;;4.82;;
59302;SDS011;45074;52.764;6.896;2023-07-09T15:21:56;9.43;;;4.80;;
59302;SDS011;45074;52.764;6.896;2023-07-09T15:24:27;7.80;;;4.50;;
59302;SDS011;45074;52.764;6.896;2023-07-09T15:26:54;9.57;;;5.00;;
59302;SDS011;45074;52.764;6.896;2023-07-09T15:29:22;8.52;;;4.68;;